Port Coquitlam, Canada
Current Conditions -  °F | °C
As of 2:55 AM on Thursday 27 Nov 2014 (Local Time) from CYVR Reporting Station
Light Rain Light Rain  
Wind Chill: 54°   Ceiling: 6200
Heat Index: 54°   Visibility: 8mi
Dew Point: 50°   Wind: 23mph
Humidity: 88%   Direction: 150°SSE
Pressure: 29.75"   Gusts: 30mph
Location:  49.26°N, 122.78°W
Report Text: CYVR 271055Z 15020G26KT 8SM -RA BKN062 BKN110 OVC160 12/10 A2975 RMK SC5AC2AC1 SLP073
Loading
Personal Weather Stations






























Interactive Weather Map New forecast layout! Learn more

10-Day Weather Forecast

Advertisements
Track Severe Weather on mobile